Terminal Aerodrome Forecast
Issued by NWS Des Moines, IA

Home | Current Version | Previous Version | Text Only | Print | Product List | Glossary On
Versions: 1 2 3 4 5 6 7 8 9 10 11 12 13 14 15 16 17 18 19 20 21 22 23 24 25 26 27
000
FTUS43 KDMX 240520
TAFALO
TAF
KALO 240520Z 2406/2506 15006KT P6SM BKN060
     FM241300 13011KT 4SM -SHRA BR BKN020
     FM242000 14012KT 6SM BR BKN025
     FM250300 15009KT 5SM -TSRA BR BKN013CB=

USA.gov is the U.S. government's official web portal to all federal, state and local government web resources and services.